createdAt,value
2024-03-02T00:01:38.858Z,21.08
2024-03-02T00:04:07.908Z,20.30
2024-03-02T00:06:35.725Z,19.83
2024-03-02T00:09:03.146Z,25.23
2024-03-02T00:11:30.143Z,22.20
2024-03-02T00:13:57.079Z,22.88
2024-03-02T00:16:25.307Z,20.83
2024-03-02T00:18:52.543Z,23.65
2024-03-02T00:21:22.337Z,21.00
2024-03-02T00:23:53.104Z,19.17
2024-03-02T00:26:20.338Z,21.90
2024-03-02T00:28:47.413Z,23.33
2024-03-02T00:31:15.141Z,27.27
2024-03-02T00:33:49.573Z,24.77
2024-03-02T00:36:22.352Z,23.10
2024-03-02T00:38:51.531Z,21.70
2024-03-02T00:41:24.658Z,23.52
2024-03-02T00:44:06.310Z,26.00
2024-03-02T00:46:44.746Z,22.02
2024-03-02T00:49:21.150Z,20.27
2024-03-02T00:51:50.130Z,22.48
2024-03-02T00:54:25.541Z,24.95
2024-03-02T00:56:53.543Z,23.80
2024-03-02T00:59:20.515Z,28.38
2024-03-02T01:01:48.554Z,28.23
2024-03-02T01:04:15.427Z,26.48
2024-03-02T01:06:46.926Z,23.50
2024-03-02T01:09:14.269Z,19.75
2024-03-02T01:11:41.256Z,21.83
2024-03-02T01:14:08.258Z,19.02
2024-03-02T01:16:35.151Z,21.60
2024-03-02T01:19:02.216Z,25.00
2024-03-02T01:21:29.391Z,20.88
2024-03-02T01:23:56.287Z,19.50
2024-03-02T01:26:23.054Z,20.15
2024-03-02T01:28:49.858Z,20.73
2024-03-02T01:31:16.764Z,20.70
2024-03-02T01:33:43.946Z,21.70
2024-03-02T01:36:10.833Z,17.83
2024-03-02T01:38:37.739Z,19.85
2024-03-02T01:41:04.830Z,19.73
2024-03-02T01:43:31.737Z,22.15
2024-03-02T01:45:58.630Z,22.30
2024-03-02T01:48:25.721Z,24.52
2024-03-02T01:50:52.602Z,20.88
2024-03-02T01:53:20.369Z,23.75
2024-03-02T01:55:47.250Z,22.15
2024-03-02T01:58:15.251Z,20.45
2024-03-02T02:00:43.952Z,23.88
2024-03-02T02:03:11.216Z,24.05
2024-03-02T02:05:38.142Z,23.15
2024-03-02T02:08:05.340Z,24.13
2024-03-02T02:10:34.999Z,22.95
2024-03-02T02:13:02.235Z,21.23
2024-03-02T02:15:34.702Z,18.52
2024-03-02T02:18:02.123Z,21.35
2024-03-02T02:20:29.205Z,21.85
2024-03-02T02:22:57.317Z,18.63
2024-03-02T02:25:24.500Z,19.02
2024-03-02T02:27:51.879Z,16.98
2024-03-02T02:30:26.144Z,19.23
2024-03-02T02:32:53.408Z,17.50
2024-03-02T02:35:20.427Z,18.83
2024-03-02T02:37:48.226Z,18.23
2024-03-02T02:40:15.656Z,19.77
2024-03-02T02:42:42.665Z,17.05
2024-03-02T02:45:09.957Z,17.50
2024-03-02T02:47:36.737Z,18.15
2024-03-02T02:50:04.718Z,20.83
2024-03-02T02:52:41.131Z,21.15
2024-03-02T02:55:09.913Z,23.55
2024-03-02T02:57:38.822Z,23.85
2024-03-02T03:00:19.036Z,18.50
2024-03-02T03:02:51.360Z,21.90
2024-03-02T03:05:19.393Z,21.75
2024-03-02T03:07:46.587Z,17.75
2024-03-02T03:10:14.961Z,19.10
2024-03-02T03:12:43.863Z,20.58
2024-03-02T03:15:12.550Z,18.90
2024-03-02T03:17:39.352Z,20.17
2024-03-02T03:20:13.596Z,17.92
2024-03-02T03:22:40.581Z,17.55
2024-03-02T03:25:09.289Z,17.92
2024-03-02T03:27:36.931Z,18.50
2024-03-02T03:30:04.197Z,19.08
2024-03-02T03:32:31.072Z,20.45
2024-03-02T03:34:57.949Z,20.25
2024-03-02T03:37:26.864Z,20.77
2024-03-02T03:39:53.954Z,19.42
2024-03-02T03:42:20.855Z,20.50
2024-03-02T03:44:47.633Z,17.13
2024-03-02T03:47:14.498Z,15.82
2024-03-02T03:49:41.295Z,22.77
2024-03-02T03:52:08.185Z,20.85
2024-03-02T03:54:35.075Z,21.02
2024-03-02T03:57:02.092Z,17.38
2024-03-02T03:59:28.893Z,20.17
2024-03-02T04:01:55.671Z,19.17
2024-03-02T04:04:22.532Z,17.63
2024-03-02T04:06:49.398Z,17.40
2024-03-02T04:09:16.325Z,19.42
2024-03-02T04:11:43.994Z,23.08
2024-03-02T04:14:11.108Z,18.08
2024-03-02T04:16:37.916Z,17.05
2024-03-02T04:19:05.243Z,17.10
2024-03-02T04:21:32.182Z,17.60
2024-03-02T04:24:00.172Z,18.67
2024-03-02T04:26:27.513Z,17.48
2024-03-02T04:28:55.203Z,19.15
2024-03-02T04:31:22.279Z,17.10
2024-03-02T04:33:55.871Z,18.75
2024-03-02T04:36:22.768Z,17.88
2024-03-02T04:38:49.759Z,16.15
2024-03-02T04:41:16.529Z,17.70
2024-03-02T04:43:43.363Z,17.67
2024-03-02T04:46:10.715Z,16.85
2024-03-02T04:48:37.684Z,16.77
2024-03-02T04:51:04.846Z,17.33
2024-03-02T04:53:31.852Z,17.52
2024-03-02T04:56:17.136Z,16.13
2024-03-02T04:58:43.951Z,18.15
2024-03-02T05:01:11.820Z,16.58
2024-03-02T05:03:39.111Z,17.40
2024-03-02T05:06:06.061Z,15.63
2024-03-02T05:08:32.870Z,17.85
2024-03-02T05:11:19.796Z,17.20
2024-03-02T05:13:46.649Z,18.58
2024-03-02T05:16:13.393Z,17.35
2024-03-02T05:18:40.311Z,16.85
2024-03-02T05:21:07.284Z,20.17
2024-03-02T05:23:34.381Z,16.65
2024-03-02T05:26:01.346Z,17.25
2024-03-02T05:28:28.197Z,20.45
2024-03-02T05:30:55.060Z,20.35
2024-03-02T05:33:23.769Z,18.55
2024-03-02T05:35:56.910Z,17.88
2024-03-02T05:38:24.029Z,17.98
2024-03-02T05:40:50.918Z,20.48
2024-03-02T05:43:17.979Z,18.23
2024-03-02T05:45:46.745Z,19.08
2024-03-02T05:48:13.611Z,19.17
2024-03-02T05:50:40.368Z,18.70
2024-03-02T05:53:07.139Z,18.63
2024-03-02T05:55:34.010Z,20.92
2024-03-02T05:58:07.213Z,16.58
2024-03-02T06:00:34.765Z,17.25
2024-03-02T06:03:01.730Z,17.88
2024-03-02T06:05:28.760Z,16.75
2024-03-02T06:07:55.892Z,17.48
2024-03-02T06:10:22.685Z,17.48
2024-03-02T06:12:49.532Z,17.20
2024-03-02T06:15:16.669Z,15.80
2024-03-02T06:17:43.704Z,15.15
2024-03-02T06:20:10.970Z,14.88
2024-03-02T06:22:38.019Z,18.00
2024-03-02T06:25:05.424Z,20.80
2024-03-02T06:27:32.229Z,19.23
2024-03-02T06:29:59.091Z,18.83
2024-03-02T06:32:26.491Z,19.15
2024-03-02T06:34:53.392Z,17.13
2024-03-02T06:37:20.197Z,16.67
2024-03-02T06:39:47.071Z,16.40
2024-03-02T06:42:14.012Z,18.50
2024-03-02T06:44:40.806Z,18.42
2024-03-02T06:47:07.627Z,17.95
2024-03-02T06:49:35.520Z,16.42
2024-03-02T06:52:02.349Z,18.52
2024-03-02T06:54:29.317Z,18.20
2024-03-02T06:56:56.322Z,19.73
2024-03-02T06:59:23.233Z,16.92
2024-03-02T07:01:50.108Z,17.50
2024-03-02T07:04:17.019Z,17.27
2024-03-02T07:06:43.811Z,17.93
2024-03-02T07:09:12.006Z,17.23
2024-03-02T07:11:38.894Z,18.20
2024-03-02T07:14:05.742Z,15.55
2024-03-02T07:16:34.352Z,16.85
2024-03-02T07:19:02.630Z,15.25
2024-03-02T07:21:29.734Z,18.65
2024-03-02T07:23:56.717Z,16.25
2024-03-02T07:28:54.346Z,16.88
2024-03-02T07:31:21.901Z,16.38
2024-03-02T07:33:49.254Z,14.60
2024-03-02T07:36:16.384Z,19.52
2024-03-02T07:38:45.569Z,17.95
2024-03-02T07:41:12.653Z,17.80
2024-03-02T07:43:40.039Z,20.17
2024-03-02T07:46:07.170Z,17.50
2024-03-02T07:48:34.229Z,18.52
2024-03-02T07:51:01.510Z,17.98
2024-03-02T07:53:28.278Z,19.77
2024-03-02T07:55:55.154Z,18.60
2024-03-02T07:58:22.490Z,15.55
2024-03-02T08:00:51.142Z,17.38
2024-03-02T08:03:19.330Z,17.85
2024-03-02T08:05:47.136Z,17.50
2024-03-02T08:08:29.140Z,17.75
2024-03-02T08:10:57.163Z,17.70
2024-03-02T08:13:24.939Z,16.88
2024-03-02T08:15:51.843Z,17.10
2024-03-02T08:18:19.040Z,13.95
2024-03-02T08:20:46.280Z,13.85
2024-03-02T08:23:13.118Z,15.13
2024-03-02T08:25:40.043Z,13.98
2024-03-02T08:28:07.554Z,15.57
2024-03-02T08:30:34.509Z,17.25
2024-03-02T08:33:01.369Z,18.67
2024-03-02T08:35:29.149Z,16.20
2024-03-02T08:37:55.994Z,17.05
2024-03-02T08:40:22.770Z,15.30
2024-03-02T08:42:49.855Z,16.02
2024-03-02T08:45:17.713Z,17.13
2024-03-02T08:47:44.976Z,15.63
2024-03-02T08:50:11.872Z,18.88
2024-03-02T08:52:38.646Z,18.85
2024-03-02T08:55:06.300Z,21.10
2024-03-02T08:57:33.370Z,17.20
2024-03-02T09:00:01.143Z,18.45
2024-03-02T09:02:28.017Z,15.85
2024-03-02T09:04:55.032Z,13.07
2024-03-02T09:07:21.805Z,15.82
2024-03-02T09:09:48.607Z,13.50
2024-03-02T09:12:15.615Z,15.55
2024-03-02T09:14:42.826Z,16.75
2024-03-02T09:17:12.023Z,12.57
2024-03-02T09:22:26.087Z,12.65
2024-03-02T09:24:52.912Z,14.90
2024-03-02T09:27:19.758Z,18.58
2024-03-02T09:29:46.506Z,15.65
2024-03-02T09:32:15.070Z,14.52
2024-03-02T09:34:42.156Z,14.48
2024-03-02T09:37:09.073Z,13.82
2024-03-02T09:39:36.032Z,13.35
2024-03-02T09:42:04.498Z,12.23
2024-03-02T09:44:31.553Z,12.60
2024-03-02T09:46:58.504Z,10.07
2024-03-02T09:49:25.309Z,10.32
2024-03-02T09:51:52.247Z,10.38
2024-03-02T09:54:22.685Z,10.57
2024-03-02T09:56:52.336Z,9.68
2024-03-02T09:59:21.381Z,11.98
2024-03-02T10:02:04.962Z,10.95
2024-03-02T10:04:32.921Z,11.23
2024-03-02T10:07:19.866Z,10.77
2024-03-02T10:09:48.892Z,9.20
2024-03-02T10:12:18.316Z,10.65
2024-03-02T10:14:46.057Z,10.48
2024-03-02T10:17:14.507Z,9.40
2024-03-02T10:19:41.629Z,9.93
2024-03-02T10:22:10.193Z,9.82
2024-03-02T10:24:41.398Z,8.02
2024-03-02T10:27:10.342Z,8.20
2024-03-02T10:29:41.953Z,10.25
2024-03-02T10:32:12.583Z,8.32
2024-03-02T10:34:45.284Z,8.10
2024-03-02T10:37:13.486Z,7.40
2024-03-02T10:39:41.541Z,7.82
2024-03-02T10:42:09.373Z,9.63
2024-03-02T10:44:36.720Z,7.78
2024-03-02T10:47:05.948Z,10.10
2024-03-02T10:49:34.268Z,9.18
2024-03-02T10:52:01.861Z,7.93
2024-03-02T10:54:30.944Z,11.25
2024-03-02T10:57:01.150Z,10.55
2024-03-02T10:59:36.614Z,9.07
2024-03-02T11:02:06.314Z,13.73
2024-03-02T11:04:34.182Z,11.85
2024-03-02T11:07:08.605Z,11.15
2024-03-02T11:09:38.103Z,10.15
2024-03-02T11:12:16.833Z,9.10
2024-03-02T11:14:46.461Z,8.88
2024-03-02T11:17:18.569Z,8.80
2024-03-02T11:19:46.803Z,9.38
2024-03-02T11:22:14.199Z,7.85
2024-03-02T11:24:53.125Z,10.10
2024-03-02T11:27:46.313Z,10.10
2024-03-02T11:30:47.888Z,8.45
2024-03-02T11:33:16.176Z,7.50
2024-03-02T11:35:47.449Z,9.25
2024-03-02T11:38:14.395Z,8.80
2024-03-02T11:40:42.020Z,7.32
2024-03-02T11:43:17.574Z,9.70
2024-03-02T11:45:46.442Z,8.55
2024-03-02T11:48:16.488Z,8.20
2024-03-02T11:50:52.028Z,9.02
2024-03-02T11:53:20.503Z,8.75
2024-03-02T11:55:48.303Z,7.80
2024-03-02T11:58:21.588Z,7.93
2024-03-02T12:00:48.590Z,7.22
2024-03-02T12:03:16.874Z,10.13
2024-03-02T12:05:44.318Z,7.07
2024-03-02T12:08:13.727Z,7.18
2024-03-02T12:10:41.101Z,6.85
2024-03-02T12:13:09.072Z,8.68
2024-03-02T12:15:41.349Z,7.93
2024-03-02T12:18:08.498Z,8.95
2024-03-02T12:20:35.660Z,9.38
2024-03-02T12:23:05.161Z,7.07
2024-03-02T12:25:34.192Z,11.20
2024-03-02T12:28:03.927Z,10.25
2024-03-02T12:30:34.135Z,7.57
2024-03-02T12:33:01.028Z,9.45
2024-03-02T12:35:27.981Z,12.82
2024-03-02T12:37:55.925Z,8.70
2024-03-02T12:40:24.025Z,7.50
2024-03-02T12:42:52.619Z,6.60
2024-03-02T12:45:26.410Z,6.25
2024-03-02T12:47:53.907Z,7.55
2024-03-02T12:50:22.170Z,8.73
2024-03-02T12:52:56.188Z,7.68
2024-03-02T12:55:24.198Z,7.50
2024-03-02T12:57:55.086Z,12.07
2024-03-02T13:00:23.211Z,8.85
2024-03-02T13:02:51.988Z,6.82
2024-03-02T13:05:20.185Z,7.00
2024-03-02T13:07:49.625Z,5.88
2024-03-02T13:10:23.544Z,5.93
2024-03-02T13:12:51.125Z,5.82
2024-03-02T13:15:19.253Z,5.63
2024-03-02T13:17:49.530Z,7.47
2024-03-02T13:20:16.739Z,7.03
2024-03-02T13:22:43.743Z,7.32
2024-03-02T13:25:12.302Z,6.05
2024-03-02T13:27:39.987Z,5.57
2024-03-02T13:30:07.513Z,6.07
2024-03-02T13:32:34.586Z,5.50
2024-03-02T13:35:01.525Z,4.78
2024-03-02T13:37:28.457Z,5.18
2024-03-02T13:39:55.333Z,4.45
2024-03-02T13:42:22.286Z,7.03
2024-03-02T13:44:52.025Z,7.00
2024-03-02T13:47:19.086Z,5.68
2024-03-02T13:49:47.768Z,6.90
2024-03-02T13:52:15.464Z,8.03
2024-03-02T13:54:43.535Z,7.18
2024-03-02T13:57:11.493Z,5.22
2024-03-02T13:59:39.708Z,5.85
2024-03-02T14:02:07.619Z,7.43
2024-03-02T14:04:38.742Z,6.75
2024-03-02T14:07:09.781Z,8.35
2024-03-02T14:09:37.782Z,7.35
2024-03-02T14:12:06.207Z,7.38
2024-03-02T14:14:33.880Z,6.60
2024-03-02T14:17:07.685Z,5.28
2024-03-02T14:19:34.750Z,7.50
2024-03-02T14:22:01.613Z,8.38
2024-03-02T14:24:30.671Z,6.45
2024-03-02T14:27:06.282Z,11.55
2024-03-02T14:29:43.599Z,7.47
2024-03-02T14:32:10.515Z,6.50
2024-03-02T14:34:40.038Z,9.80
2024-03-02T14:37:07.466Z,9.13
2024-03-02T14:39:36.062Z,5.95
2024-03-02T14:42:03.448Z,5.85
2024-03-02T14:44:30.336Z,5.03
2024-03-02T14:46:59.439Z,10.80
2024-03-02T14:49:27.034Z,6.55
2024-03-02T14:51:54.118Z,9.00
2024-03-02T14:54:21.191Z,8.90
2024-03-02T14:56:47.973Z,7.63
2024-03-02T14:59:14.996Z,11.13
2024-03-02T15:01:42.215Z,10.93
2024-03-02T15:04:09.191Z,9.80
2024-03-02T15:06:36.184Z,9.63
2024-03-02T15:09:03.214Z,10.60
2024-03-02T15:11:31.327Z,11.73
2024-03-02T15:13:58.338Z,12.00
2024-03-02T15:16:25.552Z,14.60
2024-03-02T15:18:52.458Z,11.50
2024-03-02T15:21:21.073Z,11.43
2024-03-02T15:23:49.145Z,14.60
2024-03-02T15:26:16.637Z,14.40
2024-03-02T15:28:43.817Z,10.63
2024-03-02T15:31:10.828Z,13.65
2024-03-02T15:33:37.704Z,12.73
2024-03-02T15:36:06.013Z,11.93
2024-03-02T15:38:36.288Z,13.50
2024-03-02T15:41:05.409Z,18.25
2024-03-02T15:43:32.308Z,17.02
2024-03-02T15:45:59.595Z,16.92
2024-03-02T15:48:29.669Z,15.40
2024-03-02T15:50:56.850Z,16.88
2024-03-02T15:53:23.647Z,15.25
2024-03-02T15:55:50.990Z,20.30
2024-03-02T15:58:18.359Z,15.38
2024-03-02T16:00:46.871Z,13.07
2024-03-02T16:03:13.779Z,15.30
2024-03-02T16:05:40.765Z,18.10
2024-03-02T16:08:07.671Z,14.98
2024-03-02T16:10:34.555Z,17.83
2024-03-02T16:13:07.344Z,19.17
2024-03-02T16:15:35.257Z,15.02
2024-03-02T16:18:03.068Z,16.15
2024-03-02T16:20:29.995Z,14.27
2024-03-02T16:22:56.873Z,14.15
2024-03-02T16:25:25.985Z,14.50
2024-03-02T16:27:53.310Z,14.77
2024-03-02T16:30:21.152Z,13.15
2024-03-02T16:32:48.584Z,10.05
2024-03-02T16:35:16.353Z,14.93
2024-03-02T16:37:43.494Z,15.27
2024-03-02T16:40:11.133Z,15.18
2024-03-02T16:42:38.123Z,15.63
2024-03-02T16:45:05.670Z,15.23
2024-03-02T16:47:32.733Z,17.52
2024-03-02T16:50:00.597Z,13.77
2024-03-02T16:52:30.945Z,15.95
2024-03-02T16:54:59.579Z,13.85
2024-03-02T16:57:29.538Z,11.00
2024-03-02T16:59:56.428Z,16.95
2024-03-02T17:02:24.045Z,17.73
2024-03-02T17:04:50.969Z,18.80
2024-03-02T17:07:17.915Z,16.20
2024-03-02T17:09:44.924Z,14.43
2024-03-02T17:12:17.726Z,14.35
2024-03-02T17:14:45.832Z,17.13
2024-03-02T17:17:13.530Z,18.88
2024-03-02T17:19:40.473Z,17.50
2024-03-02T17:22:07.554Z,21.00
2024-03-02T17:24:34.407Z,15.40
2024-03-02T17:27:01.352Z,12.60
2024-03-02T17:29:28.254Z,14.15
2024-03-02T17:31:56.990Z,12.35
2024-03-02T17:34:26.985Z,16.00
2024-03-02T17:36:53.886Z,17.17
2024-03-02T17:39:20.900Z,15.57
2024-03-02T17:41:47.788Z,15.27
2024-03-02T17:44:14.653Z,12.15
2024-03-02T17:46:41.569Z,12.75
2024-03-02T17:49:08.411Z,15.55
2024-03-02T17:51:35.691Z,11.68
2024-03-02T17:54:02.541Z,12.38
2024-03-02T17:56:29.466Z,13.48
2024-03-02T17:58:56.503Z,9.98
2024-03-02T18:01:23.382Z,10.13
2024-03-02T18:03:50.542Z,11.10
2024-03-02T18:06:17.415Z,9.80
2024-03-02T18:08:44.310Z,9.15
2024-03-02T18:11:11.404Z,7.97
2024-03-02T18:13:38.289Z,8.38
2024-03-02T18:16:05.807Z,9.77
2024-03-02T18:18:32.835Z,8.00
2024-03-02T18:20:59.784Z,6.63
2024-03-02T18:23:26.678Z,8.52
2024-03-02T18:25:53.643Z,8.93
2024-03-02T18:28:20.700Z,7.50
2024-03-02T18:30:47.823Z,7.70
2024-03-02T18:33:15.839Z,7.70
2024-03-02T18:35:43.388Z,6.50
2024-03-02T18:38:10.466Z,8.05
2024-03-02T18:40:37.265Z,6.97
2024-03-02T18:43:05.029Z,9.30
2024-03-02T18:45:34.200Z,9.27
2024-03-02T18:48:03.962Z,12.00
2024-03-02T18:50:31.692Z,12.07
2024-03-02T18:52:58.538Z,9.68
2024-03-02T18:55:25.313Z,10.52
2024-03-02T18:57:52.142Z,9.50
2024-03-02T19:00:19.522Z,8.65
2024-03-02T19:02:46.324Z,7.95
2024-03-02T19:05:13.141Z,7.75
2024-03-02T19:07:40.202Z,8.20
2024-03-02T19:10:09.798Z,8.55
2024-03-02T19:12:39.935Z,8.27
2024-03-02T19:15:09.007Z,7.72
2024-03-02T19:17:35.879Z,6.57
2024-03-02T19:20:03.685Z,7.55
2024-03-02T19:22:31.930Z,7.30
2024-03-02T19:24:58.975Z,7.13
2024-03-02T19:27:25.840Z,7.63
2024-03-02T19:29:52.626Z,8.25
2024-03-02T19:32:23.077Z,7.13
2024-03-02T19:34:50.685Z,7.22
2024-03-02T19:37:17.855Z,8.32
2024-03-02T19:39:44.987Z,7.68
2024-03-02T19:42:11.827Z,8.57
2024-03-02T19:44:38.805Z,7.43
2024-03-02T19:47:05.768Z,6.53
2024-03-02T19:49:32.971Z,7.15
2024-03-02T19:51:59.878Z,7.15
2024-03-02T19:54:26.789Z,7.28
2024-03-02T19:56:56.548Z,7.20
2024-03-02T19:59:23.530Z,7.82
2024-03-02T20:01:56.478Z,6.55
2024-03-02T20:04:25.751Z,7.53
2024-03-02T20:06:56.181Z,7.75
2024-03-02T20:09:23.042Z,7.80
2024-03-02T20:11:50.208Z,6.93
2024-03-02T20:14:17.039Z,7.95
2024-03-02T20:16:47.180Z,8.63
2024-03-02T20:19:14.593Z,8.77
2024-03-02T20:21:41.559Z,10.52
2024-03-02T20:24:08.563Z,9.35
2024-03-02T20:26:36.125Z,10.48
2024-03-02T20:29:04.525Z,10.63
2024-03-02T20:31:31.392Z,10.25
2024-03-02T20:33:58.253Z,12.30
2024-03-02T20:36:25.078Z,11.35
2024-03-02T20:38:52.020Z,12.55
2024-03-02T20:41:20.275Z,12.45
2024-03-02T20:43:47.829Z,13.00
2024-03-02T20:46:15.839Z,12.38
2024-03-02T20:48:48.468Z,12.93
2024-03-02T20:51:15.661Z,11.05
2024-03-02T20:53:42.493Z,12.43
2024-03-02T20:56:09.997Z,13.48
2024-03-02T20:58:37.281Z,14.30
2024-03-02T21:01:06.025Z,10.20
2024-03-02T21:03:34.274Z,10.18
2024-03-02T21:06:01.749Z,9.93
2024-03-02T21:08:28.885Z,7.90
2024-03-02T21:10:56.084Z,10.77
2024-03-02T21:13:22.965Z,9.48
2024-03-02T21:15:51.888Z,10.30
2024-03-02T21:18:19.786Z,8.65
2024-03-02T21:20:46.936Z,9.30
2024-03-02T21:23:15.983Z,7.30
2024-03-02T21:25:43.400Z,9.18
2024-03-02T21:28:10.518Z,9.27
2024-03-02T21:30:37.400Z,7.53
2024-03-02T21:33:08.195Z,7.70
2024-03-02T21:35:35.200Z,7.72
2024-03-02T21:38:06.901Z,7.40
2024-03-02T21:40:34.922Z,8.38
2024-03-02T21:43:01.881Z,8.15
2024-03-02T21:45:28.914Z,6.82
2024-03-02T21:47:55.741Z,8.05
2024-03-02T21:50:22.785Z,8.32
2024-03-02T21:52:54.461Z,8.15
2024-03-02T21:55:21.748Z,8.60
2024-03-02T21:57:49.075Z,7.55
2024-03-02T22:00:16.466Z,5.85
2024-03-02T22:02:43.373Z,6.72
2024-03-02T22:05:10.425Z,6.90
2024-03-02T22:07:37.457Z,8.57
2024-03-02T22:10:05.843Z,6.85
2024-03-02T22:12:32.867Z,7.00
2024-03-02T22:14:59.975Z,8.13
2024-03-02T22:17:29.297Z,8.07
2024-03-02T22:19:57.009Z,7.72
2024-03-02T22:22:23.914Z,6.82
2024-03-02T22:24:50.906Z,7.90
2024-03-02T22:27:17.701Z,8.50
2024-03-02T22:29:44.454Z,8.35
2024-03-02T22:32:11.349Z,8.23
2024-03-02T22:34:38.153Z,6.65
2024-03-02T22:37:05.160Z,7.32
2024-03-02T22:39:32.059Z,6.68
2024-03-02T22:41:58.996Z,7.13
2024-03-02T22:44:25.803Z,8.90
2024-03-02T22:46:52.773Z,6.63
2024-03-02T22:49:20.385Z,7.68
2024-03-02T22:51:47.437Z,8.05
2024-03-02T22:54:14.248Z,6.53
2024-03-02T22:56:41.049Z,7.95
2024-03-02T22:59:07.893Z,7.53
2024-03-02T23:01:37.011Z,6.93
2024-03-02T23:04:06.362Z,7.72
2024-03-02T23:06:33.584Z,7.25
2024-03-02T23:09:00.452Z,6.25
2024-03-02T23:11:27.631Z,7.15
2024-03-02T23:13:54.683Z,5.97
2024-03-02T23:16:21.538Z,6.32
2024-03-02T23:18:48.557Z,6.70
2024-03-02T23:21:15.470Z,7.25
2024-03-02T23:23:42.582Z,6.75
2024-03-02T23:26:09.418Z,9.45
2024-03-02T23:28:37.286Z,7.72
2024-03-02T23:31:05.140Z,7.78
2024-03-02T23:33:32.323Z,7.75
2024-03-02T23:35:59.168Z,9.15
2024-03-02T23:38:26.008Z,10.00
2024-03-02T23:41:09.302Z,9.18
2024-03-02T23:43:39.360Z,11.55
2024-03-02T23:46:07.714Z,10.07
2024-03-02T23:48:35.630Z,11.23
2024-03-02T23:51:02.986Z,10.70
2024-03-02T23:53:31.272Z,10.77
2024-03-02T23:56:11.914Z,11.85
2024-03-02T23:58:39.651Z,9.90
